createdAt,value
2022-08-27T00:00:16.705Z,5.72
2022-08-27T00:02:52.301Z,6.32
2022-08-27T00:05:21.329Z,5.95
2022-08-27T00:07:50.283Z,6.20
2022-08-27T00:10:21.329Z,6.72
2022-08-27T00:12:49.572Z,7.10
2022-08-27T00:15:18.222Z,6.00
2022-08-27T00:17:49.597Z,5.97
2022-08-27T00:20:20.501Z,5.88
2022-08-27T00:22:52.060Z,6.07
2022-08-27T00:25:20.644Z,5.50
2022-08-27T00:27:52.760Z,5.63
2022-08-27T00:30:22.851Z,5.72
2022-08-27T00:32:50.632Z,5.65
2022-08-27T00:35:18.902Z,5.32
2022-08-27T00:37:50.358Z,5.88
2022-08-27T00:40:22.917Z,6.43
2022-08-27T00:42:50.779Z,6.07
2022-08-27T00:45:22.183Z,5.65
2022-08-27T00:47:57.357Z,6.35
2022-08-27T00:50:47.188Z,5.65
2022-08-27T00:53:19.624Z,6.50
2022-08-27T00:55:53.102Z,5.95
2022-08-27T00:58:29.354Z,7.03
2022-08-27T01:01:00.259Z,6.70
2022-08-27T01:03:28.433Z,5.50
2022-08-27T01:05:58.853Z,5.78
2022-08-27T01:08:29.814Z,5.65
2022-08-27T01:11:00.191Z,6.78
2022-08-27T01:14:00.478Z,5.57
2022-08-27T01:16:26.793Z,5.90
2022-08-27T01:18:58.109Z,7.40
2022-08-27T01:21:56.156Z,5.85
2022-08-27T01:24:44.083Z,6.10
2022-08-27T01:27:20.963Z,6.13
2022-08-27T01:29:49.168Z,7.13
2022-08-27T01:32:29.157Z,5.40
2022-08-27T01:34:58.915Z,6.43
2022-08-27T01:37:28.130Z,5.35
2022-08-27T01:39:59.201Z,5.70
2022-08-27T01:42:34.466Z,6.35
2022-08-27T01:45:05.913Z,5.95
2022-08-27T01:47:35.356Z,5.32
2022-08-27T01:50:08.841Z,5.65
2022-08-27T01:52:36.674Z,6.65
2022-08-27T01:55:07.293Z,5.20
2022-08-27T02:00:12.291Z,6.00
2022-08-27T02:02:41.028Z,5.70
2022-08-27T02:05:09.250Z,6.72
2022-08-27T02:07:38.090Z,5.90
2022-08-27T02:10:09.085Z,5.35
2022-08-27T02:12:36.809Z,5.75
2022-08-27T02:15:09.002Z,5.97
2022-08-27T02:17:38.026Z,5.65
2022-08-27T02:20:09.340Z,5.20
2022-08-27T02:22:37.979Z,5.53
2022-08-27T02:25:10.477Z,5.53
2022-08-27T02:27:39.530Z,5.55
2022-08-27T02:30:16.092Z,5.60
2022-08-27T02:32:47.218Z,5.15
2022-08-27T02:35:16.670Z,5.85
2022-08-27T02:37:59.735Z,5.85
2022-08-27T02:40:41.108Z,5.18
2022-08-27T02:43:09.591Z,4.85
2022-08-27T02:45:49.696Z,4.88
2022-08-27T02:48:17.680Z,5.35
2022-08-27T02:50:45.449Z,6.85
2022-08-27T02:53:16.016Z,4.97
2022-08-27T02:55:43.969Z,5.25
2022-08-27T02:58:15.556Z,6.15
2022-08-27T03:00:45.224Z,5.47
2022-08-27T03:03:12.988Z,5.30
2022-08-27T03:05:40.762Z,5.32
2022-08-27T03:08:12.824Z,5.60
2022-08-27T03:10:41.263Z,5.30
2022-08-27T03:13:09.030Z,5.18
2022-08-27T03:15:36.839Z,5.00
2022-08-27T03:18:27.233Z,5.20
2022-08-27T03:20:57.043Z,5.60
2022-08-27T03:23:26.843Z,6.28
2022-08-27T03:25:57.467Z,4.82
2022-08-27T03:28:30.580Z,5.15
2022-08-27T03:31:02.422Z,5.20
2022-08-27T03:33:33.030Z,4.68
2022-08-27T03:38:28.792Z,5.00
2022-08-27T03:41:01.229Z,5.43
2022-08-27T03:43:29.445Z,5.90
2022-08-27T03:46:01.554Z,6.85
2022-08-27T03:48:34.220Z,5.03
2022-08-27T03:51:13.763Z,5.40
2022-08-27T03:53:44.972Z,5.78
2022-08-27T03:56:14.572Z,6.00
2022-08-27T03:58:42.505Z,5.15
2022-08-27T04:01:10.459Z,5.43
2022-08-27T04:03:38.445Z,5.40
2022-08-27T04:06:06.664Z,5.00
2022-08-27T04:08:34.428Z,5.35
2022-08-27T04:11:06.810Z,6.53
2022-08-27T04:13:38.833Z,5.35
2022-08-27T04:16:07.312Z,5.18
2022-08-27T04:18:35.070Z,4.88
2022-08-27T04:21:15.568Z,5.47
2022-08-27T04:23:44.512Z,5.88
2022-08-27T04:26:12.544Z,5.65
2022-08-27T04:28:40.355Z,5.93
2022-08-27T04:31:13.165Z,6.25
2022-08-27T04:33:50.730Z,5.47
2022-08-27T04:36:20.357Z,5.38
2022-08-27T04:38:53.594Z,5.70
2022-08-27T04:41:21.731Z,5.00
2022-08-27T04:43:56.026Z,5.22
2022-08-27T04:46:35.091Z,5.22
2022-08-27T04:49:10.313Z,5.00
2022-08-27T04:51:39.960Z,4.85
2022-08-27T04:54:09.110Z,5.57
2022-08-27T04:56:38.203Z,4.53
2022-08-27T04:59:10.841Z,5.75
2022-08-27T05:01:40.927Z,5.95
2022-08-27T05:04:13.365Z,5.38
2022-08-27T05:06:44.319Z,5.60
2022-08-27T05:09:18.844Z,7.65
2022-08-27T05:11:47.797Z,5.55
2022-08-27T05:14:16.419Z,6.97
2022-08-27T05:16:44.285Z,5.72
2022-08-27T05:19:15.317Z,4.80
2022-08-27T05:21:51.930Z,5.00
2022-08-27T05:24:21.272Z,5.45
2022-08-27T05:26:50.096Z,5.35
2022-08-27T05:29:18.269Z,5.40
2022-08-27T05:31:47.985Z,5.70
2022-08-27T05:34:18.779Z,5.20
2022-08-27T05:36:49.736Z,5.22
2022-08-27T05:39:17.739Z,5.78
2022-08-27T05:41:48.443Z,5.80
2022-08-27T05:47:05.215Z,5.20
2022-08-27T05:49:40.324Z,5.20
2022-08-27T05:52:12.236Z,5.10
2022-08-27T05:54:40.455Z,5.38
2022-08-27T05:57:11.805Z,5.55
2022-08-27T06:00:03.764Z,5.68
2022-08-27T06:02:43.305Z,4.72
2022-08-27T06:05:11.431Z,5.78
2022-08-27T06:07:41.795Z,5.63
2022-08-27T06:10:11.164Z,6.93
2022-08-27T06:12:38.941Z,4.82
2022-08-27T06:15:07.126Z,5.85
2022-08-27T06:17:34.840Z,5.93
2022-08-27T06:20:03.452Z,5.60
2022-08-27T06:22:31.454Z,6.75
2022-08-27T06:25:02.198Z,5.30
2022-08-27T06:27:33.782Z,5.43
2022-08-27T06:30:02.610Z,4.90
2022-08-27T06:32:31.485Z,5.10
2022-08-27T06:34:59.153Z,5.40
2022-08-27T06:37:27.503Z,5.63
2022-08-27T06:39:55.287Z,5.32
2022-08-27T06:42:23.967Z,5.25
2022-08-27T06:44:54.628Z,5.35
2022-08-27T06:47:24.881Z,5.28
2022-08-27T06:49:53.615Z,4.95
2022-08-27T06:52:21.367Z,4.78
2022-08-27T06:54:50.549Z,4.28
2022-08-27T06:57:18.229Z,5.15
2022-08-27T06:59:45.926Z,4.57
2022-08-27T07:02:14.511Z,4.72
2022-08-27T07:04:45.058Z,4.82
2022-08-27T07:07:13.928Z,4.95
2022-08-27T07:09:57.464Z,4.82
2022-08-27T07:12:30.741Z,4.85
2022-08-27T07:14:58.848Z,5.03
2022-08-27T07:17:27.920Z,4.60
2022-08-27T07:19:56.724Z,5.45
2022-08-27T07:22:24.485Z,4.72
2022-08-27T07:24:53.697Z,4.80
2022-08-27T07:27:22.035Z,5.07
2022-08-27T07:29:49.885Z,5.90
2022-08-27T07:32:18.444Z,5.15
2022-08-27T07:34:46.874Z,4.75
2022-08-27T07:37:17.663Z,4.72
2022-08-27T07:40:03.258Z,5.20
2022-08-27T07:42:50.960Z,4.72
2022-08-27T07:45:18.885Z,4.53
2022-08-27T07:47:47.175Z,4.38
2022-08-27T07:50:15.596Z,4.80
2022-08-27T07:52:44.158Z,4.82
2022-08-27T07:55:13.436Z,4.78
2022-08-27T07:57:43.944Z,5.25
2022-08-27T08:00:15.597Z,5.30
2022-08-27T08:02:45.198Z,4.95
2022-08-27T08:05:15.269Z,6.03
2022-08-27T08:07:43.800Z,5.43
2022-08-27T08:10:12.152Z,5.60
2022-08-27T08:12:41.107Z,5.00
2022-08-27T08:15:11.985Z,4.72
2022-08-27T08:17:42.856Z,4.80
2022-08-27T08:20:23.989Z,4.97
2022-08-27T08:22:58.740Z,4.88
2022-08-27T08:25:26.457Z,4.93
2022-08-27T08:27:56.290Z,4.75
2022-08-27T08:30:29.075Z,5.10
2022-08-27T08:33:03.204Z,5.40
2022-08-27T08:35:34.141Z,5.15
2022-08-27T08:38:09.902Z,4.38
2022-08-27T08:40:49.763Z,4.90
2022-08-27T08:43:30.302Z,4.10
2022-08-27T08:46:17.392Z,4.63
2022-08-27T08:48:51.935Z,3.70
2022-08-27T08:51:29.409Z,3.63
2022-08-27T08:54:08.111Z,3.45
2022-08-27T08:56:55.247Z,4.22
2022-08-27T08:59:45.877Z,4.53
2022-08-27T09:02:17.625Z,3.53
2022-08-27T09:04:45.597Z,4.03
2022-08-27T09:08:15.162Z,4.15
2022-08-27T09:11:12.451Z,3.20
2022-08-27T09:13:55.681Z,3.00
2022-08-27T09:16:24.325Z,3.15
2022-08-27T09:18:53.630Z,3.40
2022-08-27T09:21:46.498Z,2.80
2022-08-27T09:24:27.514Z,3.03
2022-08-27T09:26:56.623Z,3.05
2022-08-27T09:29:34.552Z,2.97
2022-08-27T09:32:08.803Z,3.30
2022-08-27T09:34:44.957Z,3.00
2022-08-27T09:37:21.128Z,2.67
2022-08-27T09:40:22.922Z,3.67
2022-08-27T09:43:07.963Z,2.53
2022-08-27T09:45:47.748Z,3.30
2022-08-27T09:48:20.763Z,3.05
2022-08-27T09:50:55.413Z,2.70
2022-08-27T09:53:28.870Z,2.88
2022-08-27T09:56:03.407Z,3.25
2022-08-27T09:59:00.138Z,3.28
2022-08-27T10:01:33.850Z,3.28
2022-08-27T10:04:13.667Z,3.50
2022-08-27T10:06:51.671Z,4.55
2022-08-27T10:09:45.436Z,4.95
2022-08-27T10:12:38.338Z,4.63
2022-08-27T10:15:09.574Z,3.42
2022-08-27T10:17:51.967Z,4.40
2022-08-27T10:20:34.064Z,3.53
2022-08-27T10:23:25.264Z,4.47
2022-08-27T10:26:03.499Z,3.55
2022-08-27T10:28:50.314Z,3.03
2022-08-27T10:31:42.653Z,3.22
2022-08-27T10:34:32.070Z,3.60
2022-08-27T10:37:23.749Z,3.45
2022-08-27T10:40:13.006Z,3.70
2022-08-27T10:43:01.470Z,3.40
2022-08-27T10:45:43.901Z,2.75
2022-08-27T10:48:26.923Z,3.35
2022-08-27T10:51:10.615Z,2.88
2022-08-27T10:53:53.157Z,2.55
2022-08-27T10:56:26.493Z,2.75
2022-08-27T10:59:07.371Z,2.42
2022-08-27T11:02:08.355Z,3.00
2022-08-27T11:04:47.170Z,2.38
2022-08-27T11:07:18.258Z,2.50
2022-08-27T11:09:56.278Z,1.98
2022-08-27T11:12:44.595Z,2.30
2022-08-27T11:15:36.056Z,2.15
2022-08-27T11:18:06.211Z,2.22
2022-08-27T11:21:02.152Z,2.05
2022-08-27T11:23:43.378Z,2.63
2022-08-27T11:26:12.588Z,2.30
2022-08-27T11:28:50.362Z,2.42
2022-08-27T11:31:44.831Z,2.00
2022-08-27T11:34:25.288Z,2.50
2022-08-27T11:40:10.133Z,2.70
2022-08-27T11:42:48.400Z,2.45
2022-08-27T11:45:31.851Z,3.55
2022-08-27T11:48:02.387Z,2.60
2022-08-27T11:50:31.790Z,3.05
2022-08-27T11:53:03.924Z,3.00
2022-08-27T11:55:37.792Z,2.53
2022-08-27T11:58:11.566Z,2.45
2022-08-27T12:00:44.458Z,2.47
2022-08-27T12:03:28.757Z,2.20
2022-08-27T12:05:56.417Z,2.58
2022-08-27T12:08:31.514Z,2.45
2022-08-27T12:11:14.886Z,2.55
2022-08-27T12:13:48.919Z,2.20
2022-08-27T12:16:35.906Z,2.40
2022-08-27T12:19:35.470Z,2.10
2022-08-27T12:22:58.746Z,2.33
2022-08-27T12:25:27.020Z,2.22
2022-08-27T12:28:04.240Z,2.67
2022-08-27T12:30:37.853Z,2.65
2022-08-27T12:33:31.144Z,2.72
2022-08-27T12:36:09.807Z,2.90
2022-08-27T12:38:54.430Z,2.08
2022-08-27T12:41:29.030Z,3.08
2022-08-27T12:44:23.467Z,2.63
2022-08-27T12:47:02.104Z,1.65
2022-08-27T12:49:52.604Z,2.22
2022-08-27T12:53:18.367Z,2.10
2022-08-27T12:55:53.341Z,2.17
2022-08-27T12:58:30.531Z,2.03
2022-08-27T13:01:22.443Z,2.00
2022-08-27T13:03:57.137Z,2.00
2022-08-27T13:06:51.546Z,2.40
2022-08-27T13:09:32.258Z,1.95
2022-08-27T13:12:02.547Z,2.25
2022-08-27T13:14:40.999Z,2.45
2022-08-27T13:17:16.499Z,2.35
2022-08-27T13:19:53.383Z,2.95
2022-08-27T13:22:23.715Z,2.45
2022-08-27T13:24:54.587Z,2.15
2022-08-27T13:27:33.912Z,2.15
2022-08-27T13:30:18.083Z,1.88
2022-08-27T13:33:00.559Z,2.00
2022-08-27T13:35:32.581Z,2.03
2022-08-27T13:38:03.502Z,2.35
2022-08-27T13:40:31.425Z,2.08
2022-08-27T13:43:09.855Z,1.73
2022-08-27T13:45:44.138Z,1.70
2022-08-27T13:48:20.571Z,1.80
2022-08-27T13:50:55.342Z,1.90
2022-08-27T13:53:50.659Z,2.40
2022-08-27T13:56:28.774Z,2.00
2022-08-27T13:59:06.896Z,1.67
2022-08-27T14:01:41.492Z,2.15
2022-08-27T14:04:20.450Z,1.90
2022-08-27T14:06:49.924Z,2.45
2022-08-27T14:09:28.952Z,2.35
2022-08-27T14:12:04.506Z,2.43
2022-08-27T14:14:39.184Z,2.70
2022-08-27T14:17:20.035Z,2.50
2022-08-27T14:19:49.692Z,2.53
2022-08-27T14:22:19.660Z,2.70
2022-08-27T14:24:50.068Z,1.90
2022-08-27T14:27:20.197Z,2.70
2022-08-27T14:29:49.764Z,2.33
2022-08-27T14:32:19.230Z,2.88
2022-08-27T14:34:47.065Z,2.55
2022-08-27T14:37:15.517Z,2.50
2022-08-27T14:39:43.730Z,2.70
2022-08-27T14:42:12.996Z,2.30
2022-08-27T14:44:41.364Z,2.50
2022-08-27T14:47:11.076Z,3.35
2022-08-27T14:49:45.545Z,2.60
2022-08-27T14:52:14.973Z,2.55
2022-08-27T14:54:44.802Z,2.93
2022-08-27T14:57:12.729Z,2.30
2022-08-27T14:59:40.439Z,2.13
2022-08-27T15:02:13.872Z,2.40
2022-08-27T15:04:42.335Z,1.92
2022-08-27T15:07:15.555Z,2.40
2022-08-27T15:09:44.868Z,2.60
2022-08-27T15:12:25.941Z,1.95
2022-08-27T15:14:55.023Z,2.38
2022-08-27T15:17:35.127Z,2.22
2022-08-27T15:20:19.004Z,2.53
2022-08-27T15:22:54.896Z,1.80
2022-08-27T15:25:27.675Z,2.95
2022-08-27T15:27:55.362Z,4.07
2022-08-27T15:30:29.306Z,3.10
2022-08-27T15:32:57.608Z,2.10
2022-08-27T15:35:27.493Z,2.45
2022-08-27T15:37:57.063Z,2.63
2022-08-27T15:40:27.097Z,2.30
2022-08-27T15:43:02.457Z,2.03
2022-08-27T15:45:32.382Z,2.30
2022-08-27T15:48:01.482Z,2.83
2022-08-27T15:50:31.235Z,2.65
2022-08-27T15:53:03.895Z,1.92
2022-08-27T15:55:38.495Z,2.15
2022-08-27T15:58:06.508Z,2.25
2022-08-27T16:00:37.837Z,3.10
2022-08-27T16:03:09.306Z,2.80
2022-08-27T16:05:38.711Z,2.72
2022-08-27T16:08:07.298Z,2.47
2022-08-27T16:10:40.497Z,2.55
2022-08-27T16:13:08.341Z,1.98
2022-08-27T16:15:39.607Z,1.90
2022-08-27T16:18:08.325Z,2.10
2022-08-27T16:20:36.890Z,2.38
2022-08-27T16:23:05.184Z,1.83
2022-08-27T16:25:33.686Z,1.83
2022-08-27T16:28:10.808Z,2.03
2022-08-27T16:30:47.107Z,2.80
2022-08-27T16:33:21.527Z,2.10
2022-08-27T16:35:53.288Z,1.98
2022-08-27T16:38:29.455Z,2.47
2022-08-27T16:41:08.215Z,2.30
2022-08-27T16:43:40.651Z,2.13
2022-08-27T16:46:08.476Z,1.75
2022-08-27T16:49:05.973Z,1.80
2022-08-27T16:51:41.142Z,1.80
2022-08-27T16:54:10.956Z,1.80
2022-08-27T16:56:42.736Z,1.80
2022-08-27T16:59:14.217Z,2.33
2022-08-27T17:01:49.006Z,2.25
2022-08-27T17:04:28.450Z,1.73
2022-08-27T17:07:01.452Z,2.08
2022-08-27T17:09:41.128Z,3.75
2022-08-27T17:12:11.476Z,1.63
2022-08-27T17:17:09.488Z,3.03
2022-08-27T17:19:37.207Z,4.10
2022-08-27T17:22:05.686Z,3.10
2022-08-27T17:24:33.444Z,2.05
2022-08-27T17:27:04.007Z,5.05
2022-08-27T17:29:32.864Z,3.95
2022-08-27T17:32:01.397Z,3.85
2022-08-27T17:34:30.246Z,3.30
2022-08-27T17:36:57.958Z,1.83
2022-08-27T17:39:26.216Z,2.55
2022-08-27T17:41:54.778Z,3.03
2022-08-27T17:44:32.809Z,2.78
2022-08-27T17:47:09.672Z,2.60
2022-08-27T17:49:37.851Z,3.17
2022-08-27T17:52:10.587Z,2.53
2022-08-27T17:54:56.761Z,3.05
2022-08-27T17:57:42.049Z,3.05
2022-08-27T18:00:23.378Z,5.65
2022-08-27T18:02:52.512Z,9.40
2022-08-27T18:05:22.875Z,6.78
2022-08-27T18:07:52.081Z,6.85
2022-08-27T18:10:28.965Z,5.90
2022-08-27T18:12:59.352Z,5.00
2022-08-27T18:18:03.977Z,6.82
2022-08-27T18:20:32.614Z,7.18
2022-08-27T18:23:01.551Z,7.78
2022-08-27T18:25:37.506Z,4.85
2022-08-27T18:28:08.387Z,6.90
2022-08-27T18:30:39.570Z,5.28
2022-08-27T18:33:09.021Z,5.45
2022-08-27T18:35:37.928Z,4.78
2022-08-27T18:38:06.666Z,2.72
2022-08-27T18:40:45.499Z,2.67
2022-08-27T18:43:14.720Z,3.15
2022-08-27T18:45:46.302Z,3.17
2022-08-27T18:48:17.709Z,5.97
2022-08-27T18:50:58.028Z,6.90
2022-08-27T18:53:29.111Z,5.90
2022-08-27T18:56:00.309Z,7.80
2022-08-27T18:58:40.046Z,5.57
2022-08-27T19:01:15.392Z,4.72
2022-08-27T19:03:52.898Z,2.65
2022-08-27T19:08:51.966Z,3.75
2022-08-27T19:11:22.385Z,4.05
2022-08-27T19:13:53.483Z,5.20
2022-08-27T19:16:28.912Z,4.95
2022-08-27T19:18:59.800Z,7.30
2022-08-27T19:21:27.555Z,6.75
2022-08-27T19:23:59.446Z,5.32
2022-08-27T19:26:34.746Z,4.65
2022-08-27T19:29:02.843Z,3.33
2022-08-27T19:31:34.539Z,4.07
2022-08-27T19:34:08.738Z,9.63
2022-08-27T19:36:40.581Z,15.82
2022-08-27T19:39:11.705Z,12.05
2022-08-27T19:41:39.734Z,14.80
2022-08-27T19:44:30.059Z,12.70
2022-08-27T19:47:01.822Z,10.55
2022-08-27T19:49:31.564Z,16.23
2022-08-27T19:52:02.208Z,9.25
2022-08-27T19:54:33.874Z,9.90
2022-08-27T19:57:01.787Z,17.33
2022-08-27T19:59:29.574Z,22.23
2022-08-27T20:01:57.301Z,15.68
2022-08-27T20:04:32.469Z,11.18
2022-08-27T20:07:01.236Z,10.10
2022-08-27T20:09:29.306Z,9.30
2022-08-27T20:11:57.091Z,10.55
2022-08-27T20:14:25.559Z,10.10
2022-08-27T20:16:53.830Z,16.77
2022-08-27T20:19:23.597Z,14.30
2022-08-27T20:21:51.338Z,16.95
2022-08-27T20:24:19.612Z,16.90
2022-08-27T20:26:47.892Z,15.63
2022-08-27T20:29:29.458Z,14.38
2022-08-27T20:32:06.791Z,10.55
2022-08-27T20:34:35.168Z,10.20
2022-08-27T20:37:07.529Z,10.30
2022-08-27T20:39:35.493Z,10.48
2022-08-27T20:42:07.180Z,9.75
2022-08-27T20:44:39.765Z,8.60
2022-08-27T20:47:08.823Z,5.15
2022-08-27T20:49:40.223Z,6.18
2022-08-27T20:52:11.555Z,6.50
2022-08-27T20:54:40.512Z,5.97
2022-08-27T20:57:10.133Z,5.38
2022-08-27T20:59:57.388Z,6.03
2022-08-27T21:02:30.032Z,5.32
2022-08-27T21:05:34.367Z,6.68
2022-08-27T21:08:04.474Z,12.23
2022-08-27T21:10:37.462Z,18.73
2022-08-27T21:13:08.071Z,15.88
2022-08-27T21:15:54.646Z,17.40
2022-08-27T21:18:29.512Z,14.35
2022-08-27T21:21:04.411Z,6.45
2022-08-27T21:23:33.926Z,6.65
2022-08-27T21:26:13.566Z,5.15
2022-08-27T21:28:44.710Z,4.50
2022-08-27T21:31:12.727Z,4.03
2022-08-27T21:33:40.574Z,4.38
2022-08-27T21:36:14.884Z,6.22
2022-08-27T21:38:45.267Z,7.40
2022-08-27T21:41:13.648Z,7.45
2022-08-27T21:43:41.359Z,7.45
2022-08-27T21:46:09.075Z,3.50
2022-08-27T21:48:37.991Z,6.72
2022-08-27T21:51:10.810Z,4.75
2022-08-27T21:53:41.866Z,4.68
2022-08-27T21:56:12.389Z,5.10
2022-08-27T21:58:41.735Z,3.45
2022-08-27T22:01:12.530Z,3.38
2022-08-27T22:03:43.151Z,3.38
2022-08-27T22:08:49.931Z,3.20
2022-08-27T22:11:24.025Z,3.53
2022-08-27T22:13:53.132Z,3.42
2022-08-27T22:16:20.957Z,3.30
2022-08-27T22:18:54.301Z,3.88
2022-08-27T22:21:24.206Z,4.45
2022-08-27T22:23:52.561Z,3.85
2022-08-27T22:26:21.153Z,4.28
2022-08-27T22:28:49.400Z,4.70
2022-08-27T22:31:17.299Z,5.25
2022-08-27T22:33:45.195Z,4.78
2022-08-27T22:36:12.924Z,4.65
2022-08-27T22:38:40.771Z,3.97
2022-08-27T22:41:10.724Z,4.13
2022-08-27T22:43:42.498Z,4.07
2022-08-27T22:46:16.208Z,3.55
2022-08-27T22:48:56.483Z,4.20
2022-08-27T22:51:24.448Z,3.88
2022-08-27T22:53:52.110Z,4.72
2022-08-27T22:56:19.864Z,4.20
2022-08-27T22:58:48.666Z,3.92
2022-08-27T23:01:22.550Z,4.80
2022-08-27T23:03:53.334Z,4.10
2022-08-27T23:08:51.757Z,4.63
2022-08-27T23:11:21.824Z,5.18
2022-08-27T23:13:57.476Z,5.40
2022-08-27T23:16:25.352Z,6.00
2022-08-27T23:18:54.438Z,4.97
2022-08-27T23:21:25.005Z,5.10
2022-08-27T23:23:52.738Z,5.70
2022-08-27T23:26:38.920Z,5.85
2022-08-27T23:29:07.691Z,4.05
2022-08-27T23:31:35.414Z,4.40
2022-08-27T23:34:05.996Z,4.57
2022-08-27T23:36:34.909Z,4.95
2022-08-27T23:39:03.040Z,4.78
2022-08-27T23:41:30.855Z,4.82
2022-08-27T23:46:31.720Z,4.53
2022-08-27T23:48:59.709Z,4.30
2022-08-27T23:51:27.368Z,4.72
2022-08-27T23:53:55.229Z,5.55
2022-08-27T23:56:28.053Z,4.28
2022-08-27T23:58:59.913Z,5.13
